createdAt,value
2022-10-07T00:00:47.509Z,57.90
2022-10-07T00:03:14.713Z,45.40
2022-10-07T00:05:41.925Z,45.00
2022-10-07T00:08:09.305Z,45.20
2022-10-07T00:10:43.232Z,45.00
2022-10-07T00:13:12.184Z,50.80
2022-10-07T00:15:39.467Z,57.10
2022-10-07T00:18:06.493Z,53.60
2022-10-07T00:20:39.831Z,44.90
2022-10-07T00:23:08.022Z,42.80
2022-10-07T00:25:37.998Z,43.00
2022-10-07T00:28:05.732Z,40.30
2022-10-07T00:30:33.156Z,46.20
2022-10-07T00:33:00.021Z,46.70
2022-10-07T00:35:26.850Z,59.00
2022-10-07T00:37:54.204Z,78.40
2022-10-07T00:40:21.210Z,78.50
2022-10-07T00:42:48.040Z,78.50
2022-10-07T00:45:17.363Z,78.40
2022-10-07T00:47:47.203Z,82.40
2022-10-07T00:50:24.052Z,78.50
2022-10-07T00:52:56.466Z,78.50
2022-10-07T00:55:26.345Z,66.80
2022-10-07T00:57:57.303Z,69.50
2022-10-07T01:00:24.277Z,71.80
2022-10-07T01:02:52.214Z,78.40
2022-10-07T01:05:20.274Z,78.50
2022-10-07T01:07:50.095Z,76.90
2022-10-07T01:10:20.290Z,76.60
2022-10-07T01:13:14.582Z,78.50
2022-10-07T01:16:06.621Z,78.50
2022-10-07T01:18:39.577Z,78.40
2022-10-07T01:21:10.912Z,78.40
2022-10-07T01:24:09.883Z,78.50
2022-10-07T01:26:51.332Z,81.60
2022-10-07T01:29:44.343Z,78.40
2022-10-07T01:32:21.713Z,78.40
2022-10-07T01:34:51.854Z,78.30
2022-10-07T01:37:21.033Z,88.90
2022-10-07T01:39:56.027Z,91.20
2022-10-07T01:42:26.181Z,92.60
2022-10-07T01:44:56.697Z,93.20
2022-10-07T01:47:26.013Z,91.50
2022-10-07T01:49:52.877Z,87.10
2022-10-07T01:52:59.507Z,92.40
2022-10-07T01:55:45.179Z,95.60
2022-10-07T01:58:55.841Z,87.00
2022-10-07T02:01:41.654Z,78.20
2022-10-07T02:04:31.033Z,88.90
2022-10-07T02:07:08.895Z,93.50
2022-10-07T02:09:56.614Z,87.30
2022-10-07T02:12:40.224Z,83.50
2022-10-07T02:15:16.891Z,90.40
2022-10-07T02:17:50.954Z,88.50
2022-10-07T02:20:19.405Z,81.60
2022-10-07T02:22:47.971Z,88.90
2022-10-07T02:25:17.545Z,88.20
2022-10-07T02:27:47.216Z,78.20
2022-10-07T02:30:16.968Z,78.20
2022-10-07T02:32:49.821Z,78.20
2022-10-07T02:35:27.593Z,79.10
2022-10-07T02:37:58.240Z,82.00
2022-10-07T02:40:30.922Z,93.00
2022-10-07T02:43:04.815Z,85.30
2022-10-07T02:45:36.452Z,90.70
2022-10-07T02:48:21.376Z,88.60
2022-10-07T02:50:53.677Z,91.10
2022-10-07T02:53:21.518Z,90.20
2022-10-07T02:55:51.933Z,79.10
2022-10-07T02:58:19.834Z,70.20
2022-10-07T03:00:52.973Z,79.10
2022-10-07T03:03:19.914Z,71.20
2022-10-07T03:05:49.251Z,79.00
2022-10-07T03:08:16.578Z,79.00
2022-10-07T03:10:43.555Z,79.00
2022-10-07T03:13:10.778Z,79.10
2022-10-07T03:15:42.040Z,79.10
2022-10-07T03:18:26.283Z,78.90
2022-10-07T03:20:55.435Z,87.00
2022-10-07T03:23:25.989Z,88.80
2022-10-07T03:25:54.826Z,95.60
2022-10-07T03:28:23.398Z,94.00
2022-10-07T03:30:51.506Z,99.10
2022-10-07T03:33:20.175Z,99.90
2022-10-07T03:35:46.962Z,98.40
2022-10-07T03:38:13.744Z,97.70
2022-10-07T03:40:43.422Z,99.90
2022-10-07T03:43:10.263Z,99.90
2022-10-07T03:45:43.645Z,99.90
2022-10-07T03:48:10.749Z,99.90
2022-10-07T03:50:38.162Z,99.80
2022-10-07T03:53:05.119Z,99.50
2022-10-07T03:55:32.184Z,99.90
2022-10-07T03:57:59.843Z,99.90
2022-10-07T04:00:27.599Z,99.40
2022-10-07T04:02:54.529Z,97.40
2022-10-07T04:05:22.569Z,99.90
2022-10-07T04:07:50.570Z,99.70
2022-10-07T04:10:19.603Z,99.90
2022-10-07T04:12:48.912Z,99.90
2022-10-07T04:15:15.796Z,99.90
2022-10-07T04:17:43.695Z,99.90
2022-10-07T04:20:12.608Z,99.90
2022-10-07T04:22:39.449Z,99.90
2022-10-07T04:25:26.177Z,97.80
2022-10-07T04:27:54.130Z,99.50
2022-10-07T04:30:22.616Z,99.90
2022-10-07T04:32:50.654Z,96.40
2022-10-07T04:35:18.892Z,92.60
2022-10-07T04:37:48.773Z,91.10
2022-10-07T04:40:15.721Z,89.80
2022-10-07T04:43:00.971Z,78.90
2022-10-07T04:45:28.149Z,78.80
2022-10-07T04:47:55.035Z,90.20
2022-10-07T04:50:21.930Z,88.90
2022-10-07T04:52:48.739Z,78.80
2022-10-07T04:55:15.731Z,82.80
2022-10-07T04:57:42.866Z,89.50
2022-10-07T05:00:10.482Z,88.10
2022-10-07T05:02:37.424Z,84.90
2022-10-07T05:05:04.949Z,90.70
2022-10-07T05:07:32.474Z,83.10
2022-10-07T05:09:59.641Z,91.90
2022-10-07T05:12:26.683Z,87.20
2022-10-07T05:14:53.621Z,90.70
2022-10-07T05:17:20.500Z,92.30
2022-10-07T05:19:47.591Z,78.70
2022-10-07T05:22:14.561Z,87.80
2022-10-07T05:24:41.389Z,84.00
2022-10-07T05:27:08.391Z,78.60
2022-10-07T05:29:35.158Z,78.60
2022-10-07T05:32:04.990Z,63.30
2022-10-07T05:34:32.643Z,66.20
2022-10-07T05:36:59.494Z,65.90
2022-10-07T05:39:26.274Z,59.30
2022-10-07T05:41:53.178Z,60.10
2022-10-07T05:44:20.011Z,62.20
2022-10-07T05:46:47.068Z,60.80
2022-10-07T05:49:13.903Z,54.90
2022-10-07T05:51:40.709Z,53.70
2022-10-07T05:54:08.413Z,40.80
2022-10-07T05:56:38.418Z,45.90
2022-10-07T05:59:05.404Z,44.10
2022-10-07T06:01:32.571Z,38.40
2022-10-07T06:03:59.606Z,34.20
2022-10-07T06:06:26.791Z,34.50
2022-10-07T06:08:53.843Z,39.40
2022-10-07T06:11:39.380Z,29.00
2022-10-07T06:14:06.716Z,21.70
2022-10-07T06:16:33.670Z,30.80
2022-10-07T06:19:00.895Z,30.50
2022-10-07T06:21:28.189Z,26.40
2022-10-07T06:23:56.972Z,21.80
2022-10-07T06:26:24.138Z,21.80
2022-10-07T06:28:51.161Z,21.50
2022-10-07T06:31:22.440Z,14.20
2022-10-07T06:33:50.289Z,13.70
2022-10-07T06:36:18.124Z,13.80
2022-10-07T06:38:47.380Z,6.20
2022-10-07T06:41:14.954Z,9.90
2022-10-07T06:43:41.864Z,10.50
2022-10-07T06:46:13.557Z,10.20
2022-10-07T06:48:41.908Z,4.60
2022-10-07T06:51:12.620Z,4.60
2022-10-07T06:53:39.460Z,1.00
2022-10-07T06:56:08.541Z,1.00
2022-10-07T06:58:35.909Z,1.00
2022-10-07T07:01:03.670Z,1.00
2022-10-07T07:03:30.553Z,1.00
2022-10-07T07:05:57.998Z,1.00
2022-10-07T07:08:31.713Z,1.00
2022-10-07T07:11:27.149Z,1.00
2022-10-07T07:13:54.780Z,1.00
2022-10-07T07:16:21.956Z,1.00
2022-10-07T07:18:57.096Z,1.00
2022-10-07T07:21:25.724Z,1.00
2022-10-07T07:23:52.574Z,1.00
2022-10-07T07:26:20.474Z,1.00
2022-10-07T07:29:05.642Z,1.00
2022-10-07T07:31:35.042Z,1.00
2022-10-07T07:34:04.643Z,1.00
2022-10-07T07:36:36.159Z,1.00
2022-10-07T07:39:12.083Z,1.00
2022-10-07T07:41:41.795Z,1.00
2022-10-07T07:44:13.963Z,1.00
2022-10-07T07:46:44.034Z,1.00
2022-10-07T07:49:13.096Z,1.00
2022-10-07T07:51:42.552Z,1.00
2022-10-07T07:54:10.579Z,1.00
2022-10-07T07:56:37.540Z,1.00
2022-10-07T07:59:05.374Z,1.00
2022-10-07T08:01:32.523Z,1.00
2022-10-07T08:03:59.596Z,1.00
2022-10-07T08:06:28.000Z,1.00
2022-10-07T08:08:59.415Z,1.00
2022-10-07T08:11:27.470Z,1.00
2022-10-07T08:13:56.095Z,1.00
2022-10-07T08:16:25.126Z,1.00
2022-10-07T08:18:55.639Z,1.00
2022-10-07T08:21:26.774Z,1.00
2022-10-07T08:23:57.530Z,1.00
2022-10-07T08:26:29.203Z,1.00
2022-10-07T08:28:57.726Z,1.00
2022-10-07T08:31:27.560Z,1.00
2022-10-07T08:33:56.899Z,1.00
2022-10-07T08:36:25.881Z,1.00
2022-10-07T08:38:53.204Z,1.00
2022-10-07T08:41:45.801Z,1.00
2022-10-07T08:44:20.732Z,1.00
2022-10-07T08:46:53.404Z,1.00
2022-10-07T08:49:27.924Z,1.00
2022-10-07T08:52:01.806Z,1.00
2022-10-07T08:54:30.819Z,1.00
2022-10-07T08:57:04.452Z,1.00
2022-10-07T08:59:33.638Z,1.00
2022-10-07T09:02:32.133Z,1.00
2022-10-07T09:05:22.211Z,1.00
2022-10-07T09:07:56.349Z,1.00
2022-10-07T09:10:36.562Z,1.00
2022-10-07T09:13:14.017Z,1.00
2022-10-07T09:15:56.987Z,1.00
2022-10-07T09:18:39.180Z,1.00
2022-10-07T09:21:13.001Z,1.00
2022-10-07T09:23:39.896Z,1.00
2022-10-07T09:26:11.457Z,1.00
2022-10-07T09:28:38.493Z,1.00
2022-10-07T09:31:05.950Z,1.00
2022-10-07T09:33:41.647Z,1.00
2022-10-07T09:36:11.511Z,1.00
2022-10-07T09:38:40.988Z,1.00
2022-10-07T09:41:32.015Z,1.00
2022-10-07T09:44:04.877Z,1.00
2022-10-07T09:46:53.043Z,1.00
2022-10-07T09:49:28.702Z,1.00
2022-10-07T09:52:16.269Z,1.00
2022-10-07T09:54:48.540Z,1.00
2022-10-07T09:57:31.368Z,1.00
2022-10-07T10:00:27.814Z,1.00
2022-10-07T10:03:05.475Z,1.00
2022-10-07T10:05:36.300Z,1.00
2022-10-07T10:08:06.926Z,1.00
2022-10-07T10:10:36.005Z,1.00
2022-10-07T10:13:06.105Z,1.00
2022-10-07T10:15:35.819Z,1.00
2022-10-07T10:18:25.223Z,1.00
2022-10-07T10:20:52.156Z,1.00
2022-10-07T10:23:29.950Z,1.00
2022-10-07T10:26:29.364Z,1.00
2022-10-07T10:29:11.483Z,1.00
2022-10-07T10:32:02.755Z,1.00
2022-10-07T10:34:29.482Z,1.00
2022-10-07T10:37:20.377Z,1.00
2022-10-07T10:40:14.303Z,1.00
2022-10-07T10:42:58.436Z,1.00
2022-10-07T10:45:54.463Z,1.00
2022-10-07T10:48:44.216Z,1.00
2022-10-07T10:51:33.333Z,1.00
2022-10-07T10:54:13.172Z,1.00
2022-10-07T10:56:51.860Z,1.00
2022-10-07T10:59:40.713Z,1.00
2022-10-07T11:02:38.688Z,1.00
2022-10-07T11:05:28.261Z,1.00
2022-10-07T11:08:19.844Z,1.00
2022-10-07T11:11:03.823Z,1.00
2022-10-07T11:13:46.962Z,1.00
2022-10-07T11:16:36.544Z,1.00
2022-10-07T11:19:41.417Z,1.00
2022-10-07T11:22:20.146Z,1.00
2022-10-07T11:24:56.937Z,1.00
2022-10-07T11:27:35.114Z,1.00
2022-10-07T11:30:23.280Z,1.00
2022-10-07T11:33:04.872Z,1.00
2022-10-07T11:35:37.811Z,1.00
2022-10-07T11:38:10.853Z,1.00
2022-10-07T11:40:54.581Z,1.00
2022-10-07T11:43:33.293Z,1.00
2022-10-07T11:46:11.734Z,1.00
2022-10-07T11:48:44.072Z,1.00
2022-10-07T11:51:35.025Z,1.00
2022-10-07T11:54:06.461Z,1.00
2022-10-07T11:56:44.450Z,1.00
2022-10-07T11:59:33.817Z,1.00
2022-10-07T12:02:01.373Z,1.00
2022-10-07T12:04:31.178Z,1.00
2022-10-07T12:07:32.244Z,1.00
2022-10-07T12:10:02.026Z,1.00
2022-10-07T12:12:47.669Z,1.00
2022-10-07T12:15:45.065Z,1.00
2022-10-07T12:18:12.245Z,1.00
2022-10-07T12:20:51.361Z,1.00
2022-10-07T12:23:25.819Z,1.00
2022-10-07T12:26:04.768Z,1.00
2022-10-07T12:28:41.837Z,1.00
2022-10-07T12:31:14.547Z,1.00
2022-10-07T12:33:44.559Z,1.00
2022-10-07T12:36:26.300Z,1.00
2022-10-07T12:38:56.171Z,1.00
2022-10-07T12:41:26.871Z,1.00
2022-10-07T12:43:59.397Z,1.00
2022-10-07T12:46:31.134Z,1.00
2022-10-07T12:49:03.243Z,1.00
2022-10-07T12:51:39.567Z,1.00
2022-10-07T12:54:24.913Z,1.00
2022-10-07T12:56:51.910Z,1.00
2022-10-07T12:59:50.249Z,1.00
2022-10-07T13:02:51.774Z,1.00
2022-10-07T13:05:56.290Z,1.00
2022-10-07T13:08:32.619Z,1.00
2022-10-07T13:11:25.738Z,1.00
2022-10-07T13:14:34.155Z,1.00
2022-10-07T13:17:06.879Z,1.00
2022-10-07T13:20:38.784Z,1.00
2022-10-07T13:23:14.351Z,1.00
2022-10-07T13:25:49.337Z,1.00
2022-10-07T13:28:18.825Z,1.00
2022-10-07T13:30:46.282Z,1.00
2022-10-07T13:33:20.055Z,1.00
2022-10-07T13:35:47.164Z,1.00
2022-10-07T13:38:25.550Z,1.00
2022-10-07T13:41:03.373Z,1.00
2022-10-07T13:43:32.293Z,1.00
2022-10-07T13:46:01.841Z,1.00
2022-10-07T13:48:35.247Z,1.00
2022-10-07T13:51:02.854Z,1.00
2022-10-07T13:53:36.342Z,1.00
2022-10-07T13:56:40.368Z,1.00
2022-10-07T13:59:11.914Z,1.00
2022-10-07T14:01:40.305Z,1.00
2022-10-07T14:04:25.466Z,1.00
2022-10-07T14:06:56.143Z,1.00
2022-10-07T14:09:26.465Z,1.00
2022-10-07T14:11:57.233Z,1.00
2022-10-07T14:14:48.651Z,1.00
2022-10-07T14:17:28.288Z,1.00
2022-10-07T14:20:04.001Z,1.00
2022-10-07T14:22:38.667Z,1.00
2022-10-07T14:25:19.145Z,1.00
2022-10-07T14:27:45.909Z,1.00
2022-10-07T14:30:56.151Z,1.00
2022-10-07T14:33:47.755Z,1.00
2022-10-07T14:36:18.036Z,1.00
2022-10-07T14:38:46.782Z,1.00
2022-10-07T14:41:15.466Z,1.00
2022-10-07T14:43:44.869Z,1.00
2022-10-07T14:46:18.406Z,1.00
2022-10-07T14:48:45.923Z,1.00
2022-10-07T14:51:14.919Z,1.00
2022-10-07T14:53:43.671Z,1.00
2022-10-07T14:56:14.984Z,1.00
2022-10-07T14:58:42.539Z,1.00
2022-10-07T15:01:09.393Z,1.00
2022-10-07T15:03:36.248Z,1.00
2022-10-07T15:06:03.067Z,1.00
2022-10-07T15:08:31.320Z,1.00
2022-10-07T15:10:58.270Z,1.00
2022-10-07T15:13:25.172Z,1.00
2022-10-07T15:15:51.936Z,1.00
2022-10-07T15:18:18.684Z,1.00
2022-10-07T15:20:45.626Z,1.00
2022-10-07T15:23:13.918Z,1.00
2022-10-07T15:25:42.585Z,1.00
2022-10-07T15:28:09.513Z,1.00
2022-10-07T15:30:39.373Z,1.00
2022-10-07T15:33:06.566Z,1.00
2022-10-07T15:35:35.780Z,1.00
2022-10-07T15:38:02.786Z,1.00
2022-10-07T15:40:29.943Z,1.00
2022-10-07T15:42:58.154Z,1.00
2022-10-07T15:45:25.593Z,1.00
2022-10-07T15:47:58.094Z,1.00
2022-10-07T15:50:27.514Z,1.00
2022-10-07T15:52:54.762Z,1.00
2022-10-07T15:55:21.581Z,1.00
2022-10-07T15:57:48.327Z,1.00
2022-10-07T16:00:16.413Z,1.00
2022-10-07T16:02:44.182Z,1.00
2022-10-07T16:05:12.911Z,1.00
2022-10-07T16:07:42.595Z,1.00
2022-10-07T16:10:13.045Z,1.00
2022-10-07T16:12:40.175Z,1.00
2022-10-07T16:15:07.322Z,1.00
2022-10-07T16:17:35.053Z,1.00
2022-10-07T16:20:06.557Z,1.00
2022-10-07T16:22:35.776Z,1.00
2022-10-07T16:25:02.541Z,1.00
2022-10-07T16:27:49.251Z,1.00
2022-10-07T16:30:34.770Z,1.00
2022-10-07T16:33:01.566Z,1.00
2022-10-07T16:35:30.403Z,1.00
2022-10-07T16:37:57.226Z,1.00
2022-10-07T16:40:24.023Z,1.00
2022-10-07T16:42:51.968Z,1.00
2022-10-07T16:45:19.078Z,1.00
2022-10-07T16:47:46.053Z,1.00
2022-10-07T16:50:13.005Z,1.00
2022-10-07T16:52:39.816Z,1.00
2022-10-07T16:55:07.163Z,1.00
2022-10-07T16:57:34.537Z,1.00
2022-10-07T17:00:01.359Z,1.00
2022-10-07T17:02:29.843Z,1.00
2022-10-07T17:04:56.627Z,1.00
2022-10-07T17:07:23.457Z,1.00
2022-10-07T17:09:50.248Z,1.00
2022-10-07T17:12:17.057Z,1.00
2022-10-07T17:14:43.796Z,1.00
2022-10-07T17:17:10.604Z,1.00
2022-10-07T17:19:37.436Z,1.00
2022-10-07T17:22:04.202Z,1.00
2022-10-07T17:24:31.121Z,1.00
2022-10-07T17:26:57.868Z,1.00
2022-10-07T17:29:26.330Z,1.00
2022-10-07T17:31:54.181Z,1.00
2022-10-07T17:34:21.578Z,1.00
2022-10-07T17:36:49.223Z,1.00
2022-10-07T17:39:17.165Z,1.00
2022-10-07T17:41:43.921Z,1.00
2022-10-07T17:44:12.127Z,1.00
2022-10-07T17:46:40.353Z,1.00
2022-10-07T17:49:10.206Z,1.00
2022-10-07T17:51:37.608Z,1.00
2022-10-07T17:54:06.203Z,1.00
2022-10-07T17:56:34.620Z,1.00
2022-10-07T17:59:02.302Z,1.00
2022-10-07T18:01:33.937Z,1.00
2022-10-07T18:04:03.394Z,1.00
2022-10-07T18:06:32.495Z,1.00
2022-10-07T18:08:59.764Z,1.00
2022-10-07T18:11:46.930Z,1.00
2022-10-07T18:14:33.380Z,1.00
2022-10-07T18:17:00.584Z,1.00
2022-10-07T18:19:27.701Z,1.00
2022-10-07T18:21:56.393Z,1.00
2022-10-07T18:24:28.736Z,1.00
2022-10-07T18:26:59.095Z,1.00
2022-10-07T18:29:27.279Z,1.00
2022-10-07T18:31:54.340Z,1.00
2022-10-07T18:34:21.204Z,1.00
2022-10-07T18:36:50.597Z,1.00
2022-10-07T18:39:19.486Z,1.00
2022-10-07T18:41:46.496Z,1.00
2022-10-07T18:44:13.738Z,1.00
2022-10-07T18:46:40.591Z,1.00
2022-10-07T18:49:09.322Z,1.00
2022-10-07T18:51:36.185Z,1.00
2022-10-07T18:54:03.000Z,1.00
2022-10-07T18:56:29.809Z,1.00
2022-10-07T18:58:57.840Z,1.00
2022-10-07T19:01:27.835Z,1.00
2022-10-07T19:04:02.654Z,1.00
2022-10-07T19:06:31.946Z,1.00
2022-10-07T19:09:01.798Z,1.00
2022-10-07T19:11:31.727Z,1.00
2022-10-07T19:13:59.357Z,1.00
2022-10-07T19:16:28.638Z,1.00
2022-10-07T19:18:59.117Z,1.00
2022-10-07T19:21:26.438Z,1.00
2022-10-07T19:23:55.114Z,1.00
2022-10-07T19:26:24.833Z,1.00
2022-10-07T19:28:52.758Z,1.00
2022-10-07T19:31:29.292Z,1.00
2022-10-07T19:34:03.564Z,1.00
2022-10-07T19:36:32.442Z,1.00
2022-10-07T19:39:00.501Z,1.00
2022-10-07T19:41:30.246Z,1.00
2022-10-07T19:43:57.686Z,1.00
2022-10-07T19:46:27.571Z,1.00
2022-10-07T19:48:58.937Z,1.00
2022-10-07T19:51:30.199Z,1.00
2022-10-07T19:53:58.679Z,1.00
2022-10-07T19:56:28.287Z,1.00
2022-10-07T19:58:58.169Z,1.00
2022-10-07T20:01:27.133Z,1.00
2022-10-07T20:03:59.035Z,1.00
2022-10-07T20:06:26.349Z,1.00
2022-10-07T20:08:54.362Z,1.00
2022-10-07T20:11:21.511Z,1.00
2022-10-07T20:13:48.366Z,1.00
2022-10-07T20:16:21.017Z,1.00
2022-10-07T20:18:49.892Z,1.00
2022-10-07T20:21:19.181Z,1.00
2022-10-07T20:23:48.166Z,1.00
2022-10-07T20:26:28.911Z,1.00
2022-10-07T20:28:59.061Z,1.00
2022-10-07T20:31:38.572Z,1.00
2022-10-07T20:34:06.648Z,1.00
2022-10-07T20:36:37.438Z,1.00
2022-10-07T20:39:26.158Z,1.00
2022-10-07T20:42:12.547Z,1.00
2022-10-07T20:44:39.667Z,1.00
2022-10-07T20:47:09.142Z,1.00
2022-10-07T20:49:37.440Z,1.00
2022-10-07T20:52:07.900Z,1.00
2022-10-07T20:54:34.741Z,1.00
2022-10-07T20:57:01.600Z,1.00
2022-10-07T20:59:32.543Z,1.00
2022-10-07T21:02:00.149Z,1.00
2022-10-07T21:04:28.529Z,1.00
2022-10-07T21:06:58.514Z,1.00
2022-10-07T21:09:26.150Z,1.00
2022-10-07T21:11:54.764Z,1.00
2022-10-07T21:14:22.548Z,1.00
2022-10-07T21:16:49.783Z,1.00
2022-10-07T21:19:17.142Z,1.00
2022-10-07T21:21:44.129Z,1.00
2022-10-07T21:24:11.125Z,1.00
2022-10-07T21:26:37.941Z,1.00
2022-10-07T21:29:08.035Z,1.00
2022-10-07T21:31:35.757Z,1.00
2022-10-07T21:34:07.864Z,1.00
2022-10-07T21:36:49.141Z,1.00
2022-10-07T21:39:17.330Z,1.00
2022-10-07T21:41:44.171Z,1.00
2022-10-07T21:44:13.069Z,1.00
2022-10-07T21:46:43.806Z,1.00
2022-10-07T21:49:10.576Z,1.00
2022-10-07T21:51:38.103Z,1.00
2022-10-07T21:54:05.126Z,1.00
2022-10-07T21:56:33.596Z,1.00
2022-10-07T21:59:01.521Z,1.00
2022-10-07T22:01:29.142Z,1.00
2022-10-07T22:03:58.023Z,1.00
2022-10-07T22:06:55.162Z,1.00
2022-10-07T22:09:21.915Z,1.00
2022-10-07T22:11:49.344Z,1.00
2022-10-07T22:14:17.204Z,1.00
2022-10-07T22:16:48.203Z,1.00
2022-10-07T22:19:16.580Z,1.00
2022-10-07T22:21:45.561Z,1.00
2022-10-07T22:24:12.735Z,1.00
2022-10-07T22:26:44.289Z,1.00
2022-10-07T22:29:12.009Z,1.00
2022-10-07T22:31:39.230Z,1.00
2022-10-07T22:34:07.099Z,1.00
2022-10-07T22:36:34.052Z,1.00
2022-10-07T22:39:01.471Z,1.00
2022-10-07T22:41:29.153Z,1.00
2022-10-07T22:43:56.337Z,1.00
2022-10-07T22:46:26.909Z,1.00
2022-10-07T22:48:58.329Z,1.00
2022-10-07T22:51:29.429Z,1.00
2022-10-07T22:53:57.002Z,1.00
2022-10-07T22:56:25.686Z,1.00
2022-10-07T22:58:57.833Z,1.00
2022-10-07T23:01:25.910Z,1.00
2022-10-07T23:03:52.915Z,1.00
2022-10-07T23:06:20.240Z,1.00
2022-10-07T23:08:48.247Z,1.00
2022-10-07T23:11:20.585Z,1.00
2022-10-07T23:13:47.419Z,1.00
2022-10-07T23:16:19.630Z,1.00
2022-10-07T23:18:47.707Z,1.00
2022-10-07T23:21:16.697Z,1.00
2022-10-07T23:23:46.807Z,1.00
2022-10-07T23:26:15.158Z,1.00
2022-10-07T23:28:42.072Z,1.00
2022-10-07T23:31:18.245Z,1.00
2022-10-07T23:33:49.700Z,1.00
2022-10-07T23:36:18.073Z,1.00
2022-10-07T23:38:44.932Z,1.00
2022-10-07T23:41:13.890Z,1.00
2022-10-07T23:43:41.030Z,1.00
2022-10-07T23:46:12.329Z,1.00
2022-10-07T23:48:42.968Z,1.00
2022-10-07T23:51:15.341Z,1.00
2022-10-07T23:53:42.135Z,1.00
2022-10-07T23:56:09.344Z,1.00
2022-10-07T23:58:36.662Z,1.00
